Time;durP1;ratioP1;P1;durP2;ratioP2;P2;SDS_P1;SDS_P2;PMS_P1;PMS_P2;Temp;Humidity;BMP_temperature;BMP_pressure;BME280_temperature;BME280_humidity;BME280_pressure;Samples;Min_cycle;Max_cycle;Signal;HPM_P1;HPM_P2
2022/03/23 00:00:43;;;;;;;59.17;44.03;;;7.40;99.90;;;;;;5023840;27;90930;-33
2022/03/23 00:03:10;;;;;;;58.60;44.28;;;7.30;99.90;;;;;;5043024;27;89147;-39
2022/03/23 00:05:39;;;;;;;70.38;48.45;;;7.30;99.90;;;;;;5042625;27;89236;-34
2022/03/23 00:08:05;;;;;;;63.20;48.70;;;7.30;99.90;;;;;;5042407;27;90121;-36
2022/03/23 00:10:31;;;;;;;64.90;46.60;;;7.30;99.90;;;;;;5042881;27;89174;-35
2022/03/23 00:12:58;;;;;;;57.40;46.47;;;7.30;99.90;;;;;;5042046;27;89425;-35
2022/03/23 00:17:51;;;;;;;62.00;48.08;;;7.20;99.90;;;;;;5062112;27;88686;-35
2022/03/23 00:20:17;;;;;;;68.88;50.55;;;7.30;99.90;;;;;;5063091;27;89910;-37
2022/03/23 00:22:42;;;;;;;75.60;50.90;;;7.30;99.90;;;;;;5062515;27;87872;-33
2022/03/23 00:25:08;;;;;;;68.47;51.35;;;7.40;99.90;;;;;;5063449;27;90504;-34
2022/03/23 00:27:35;;;;;;;70.40;49.63;;;7.40;99.90;;;;;;5062377;27;90338;-39
2022/03/23 00:30:01;;;;;;;65.85;50.45;;;7.50;99.90;;;;;;5063290;27;89750;-37
2022/03/23 00:32:27;;;;;;;80.60;51.20;;;7.50;99.90;;;;;;5063476;27;89459;-37
2022/03/23 00:34:52;;;;;;;70.03;50.25;;;7.60;99.90;;;;;;5062070;27;87783;-33
2022/03/23 00:37:18;;;;;;;65.20;49.92;;;7.60;99.90;;;;;;5062939;27;89988;-37
2022/03/23 00:39:44;;;;;;;70.05;50.65;;;7.60;99.90;;;;;;5062366;27;89231;-35
2022/03/23 00:42:09;;;;;;;58.75;44.70;;;7.60;99.90;;;;;;5062968;27;89064;-35
2022/03/23 00:44:35;;;;;;;67.93;49.67;;;7.60;99.90;;;;;;5062863;27;88830;-34
2022/03/23 00:47:01;;;;;;;70.72;51.65;;;7.50;99.90;;;;;;5061683;27;90278;-36
2022/03/23 00:49:27;;;;;;;59.45;47.30;;;7.50;99.90;;;;;;5062380;27;89552;-35
2022/03/23 00:51:53;;;;;;;72.80;51.88;;;7.50;99.90;;;;;;5062501;27;88175;-34
2022/03/23 00:54:21;;;;;;;74.07;48.67;;;7.40;99.90;;;;;;5063202;27;89951;-38
2022/03/23 00:56:48;;;;;;;69.78;50.25;;;7.50;99.90;;;;;;5062116;27;90226;-35
2022/03/23 00:59:13;;;;;;;62.65;47.58;;;7.50;99.90;;;;;;5062121;27;89582;-35
2022/03/23 01:01:39;;;;;;;69.40;47.50;;;7.40;99.90;;;;;;5061801;27;89140;-37
2022/03/23 01:04:06;;;;;;;63.72;48.28;;;7.30;99.90;;;;;;5062915;27;88858;-38
2022/03/23 01:06:32;;;;;;;65.82;47.53;;;7.20;99.90;;;;;;5062050;27;90256;-34
2022/03/23 01:08:57;;;;;;;68.25;50.40;;;7.20;99.90;;;;;;5060888;27;90103;-36
2022/03/23 01:11:23;;;;;;;65.28;47.65;;;7.10;99.90;;;;;;5061432;27;90174;-36
2022/03/23 01:13:49;;;;;;;61.50;46.60;;;7.10;99.90;;;;;;5060757;27;88957;-35
2022/03/23 01:16:16;;;;;;;68.93;46.17;;;7.00;99.90;;;;;;5060756;27;90243;-36
2022/03/23 01:18:42;;;;;;;62.67;48.88;;;6.90;99.90;;;;;;5060056;27;90229;-34
2022/03/23 01:21:08;;;;;;;72.15;49.15;;;6.90;99.90;;;;;;5061123;27;89547;-38
2022/03/23 01:23:33;;;;;;;62.67;46.13;;;7.00;99.90;;;;;;5061659;27;88885;-36
2022/03/23 01:25:59;;;;;;;64.60;48.05;;;7.00;99.90;;;;;;5041694;27;89276;-34
2022/03/23 01:28:24;;;;;;;62.53;48.60;;;7.00;99.90;;;;;;5060949;27;90413;-34
2022/03/23 01:30:50;;;;;;;62.83;50.50;;;7.10;99.90;;;;;;5060198;27;89476;-35
2022/03/23 01:33:15;;;;;;;65.75;47.63;;;7.20;99.90;;;;;;5061312;27;89975;-33
2022/03/23 01:35:41;;;;;;;65.53;46.45;;;7.20;99.90;;;;;;5060282;27;89333;-36
2022/03/23 01:38:07;;;;;;;62.17;48.38;;;7.10;99.90;;;;;;5060626;27;89904;-38
2022/03/23 01:40:33;;;;;;;64.47;47.85;;;7.10;99.90;;;;;;5060975;27;89336;-34
2022/03/23 01:42:58;;;;;;;63.28;47.85;;;7.10;99.90;;;;;;5060045;27;89241;-33
2022/03/23 01:45:24;;;;;;;69.20;49.22;;;7.10;99.90;;;;;;5061076;27;90297;-36
2022/03/23 01:47:49;;;;;;;63.40;48.17;;;7.00;99.90;;;;;;5059718;27;89669;-35
2022/03/23 01:50:15;;;;;;;67.63;51.08;;;7.00;99.90;;;;;;5060431;27;89897;-38
2022/03/23 01:52:41;;;;;;;58.50;46.10;;;6.90;99.90;;;;;;5061054;27;89268;-36
2022/03/23 01:55:09;;;;;;;75.05;52.60;;;6.90;99.90;;;;;;5059994;27;90351;-38
2022/03/23 01:57:36;;;;;;;61.80;47.13;;;6.80;99.90;;;;;;5060155;27;89629;-35
2022/03/23 02:00:05;;;;;;;59.80;46.10;;;6.70;99.90;;;;;;5060438;27;89806;-35
2022/03/23 02:02:31;;;;;;;56.60;43.13;;;6.60;99.90;;;;;;5061046;27;88968;-34
2022/03/23 02:04:56;;;;;;;69.60;47.50;;;6.50;99.90;;;;;;5059288;27;90147;-33
2022/03/23 02:07:24;;;;;;;67.93;47.40;;;6.30;99.90;;;;;;5059890;27;91306;-34
2022/03/23 02:09:50;;;;;;;79.53;53.20;;;6.40;99.90;;;;;;5060255;27;90363;-37
2022/03/23 02:12:15;;;;;;;66.50;48.38;;;6.30;99.90;;;;;;5059725;27;88333;-33
2022/03/23 02:14:41;;;;;;;69.55;50.40;;;6.30;99.90;;;;;;5060270;27;89527;-36
2022/03/23 02:17:07;;;;;;;66.47;52.00;;;6.20;99.90;;;;;;5059503;27;89687;-35
2022/03/23 02:19:33;;;;;;;68.25;50.70;;;6.10;99.90;;;;;;5060399;27;89649;-32
2022/03/23 02:21:59;;;;;;;66.15;51.28;;;6.00;99.90;;;;;;5061058;27;88292;-35
2022/03/23 02:24:28;;;;;;;69.97;51.78;;;6.00;99.90;;;;;;5059423;27;90122;-38
2022/03/23 02:26:54;;;;;;;69.25;49.35;;;6.10;99.90;;;;;;5059859;27;89697;-37
2022/03/23 02:29:22;;;;;;;65.72;47.45;;;6.10;99.90;;;;;;5060407;27;89233;-35
2022/03/23 02:31:48;;;;;;;64.20;50.70;;;6.10;99.90;;;;;;5059472;27;89670;-34
2022/03/23 02:34:14;;;;;;;64.18;50.13;;;6.00;99.90;;;;;;5060101;27;90193;-33
2022/03/23 02:36:40;;;;;;;65.60;50.45;;;6.10;99.90;;;;;;5059767;27;88879;-35
2022/03/23 02:39:05;;;;;;;60.55;49.53;;;6.10;99.90;;;;;;5058985;27;89074;-35
2022/03/23 02:41:31;;;;;;;74.65;54.75;;;6.10;99.90;;;;;;5060328;27;89836;-33
2022/03/23 02:43:58;;;;;;;68.28;51.72;;;6.20;99.90;;;;;;5059589;27;90424;-33
2022/03/23 02:46:24;;;;;;;79.15;58.20;;;6.30;99.90;;;;;;5059642;27;88682;-33
2022/03/23 02:48:52;;;;;;;71.80;53.22;;;6.30;99.90;;;;;;5059874;27;88091;-35
2022/03/23 02:51:18;;;;;;;77.97;60.17;;;6.30;99.90;;;;;;5059771;27;88729;-32
2022/03/23 03:02:32;;;;;;;74.25;54.83;;;6.20;99.90;;;;;;5060206;27;89333;-35
2022/03/23 03:04:58;;;;;;;;;;;6.20;99.90;;;;;;5058989;27;90154;-33
2022/03/23 03:07:23;;;;;;;80.97;58.90;;;6.10;99.90;;;;;;5060917;27;96321;-40
2022/03/23 03:09:49;;;;;;;69.65;52.42;;;5.90;99.90;;;;;;5059385;27;89928;-34
2022/03/23 03:12:16;;;;;;;69.35;53.38;;;5.80;99.90;;;;;;5059473;27;89764;-36
2022/03/23 03:14:42;;;;;;;67.83;53.30;;;5.80;99.90;;;;;;5059420;27;90513;-34
2022/03/23 03:17:08;;;;;;;72.30;54.97;;;5.60;99.90;;;;;;5058502;27;90172;-34
2022/03/23 03:19:35;;;;;;;71.82;53.50;;;5.60;99.90;;;;;;5058952;27;91092;-37
2022/03/23 03:22:01;;;;;;;73.53;54.03;;;5.50;99.90;;;;;;5059330;27;89908;-33
2022/03/23 03:24:27;;;;;;;75.40;56.00;;;5.30;99.90;;;;;;5040539;27;90305;-34
2022/03/23 03:26:54;;;;;;;69.30;53.38;;;5.30;99.90;;;;;;5059184;27;89741;-35
2022/03/23 03:29:20;;;;;;;67.57;55.83;;;5.20;99.90;;;;;;5059106;27;89690;-33
2022/03/23 03:31:46;;;;;;;71.38;51.35;;;5.20;99.90;;;;;;5040630;27;89929;-33
2022/03/23 03:34:11;;;;;;;81.57;56.38;;;5.20;99.90;;;;;;5059253;27;90495;-33
2022/03/23 03:36:37;;;;;;;73.40;54.15;;;5.20;99.90;;;;;;5058553;27;89541;-37
2022/03/23 03:39:04;;;;;;;77.85;55.67;;;5.30;99.90;;;;;;5058741;27;89520;-38
2022/03/23 03:41:31;;;;;;;71.20;56.85;;;5.30;99.90;;;;;;5059033;27;89062;-34
2022/03/23 03:43:57;;;;;;;78.20;56.13;;;5.30;99.90;;;;;;5058870;27;89492;-33
2022/03/23 03:46:22;;;;;;;73.78;55.63;;;5.30;99.90;;;;;;5057943;27;90465;-38
2022/03/23 03:48:48;;;;;;;76.15;55.47;;;5.30;99.90;;;;;;5058859;27;90834;-33
2022/03/23 03:51:13;;;;;;;70.80;54.67;;;5.40;99.90;;;;;;5058493;27;89359;-35
2022/03/23 03:53:39;;;;;;;67.95;53.97;;;5.40;99.90;;;;;;5058864;27;90214;-36
2022/03/23 03:56:05;;;;;;;73.15;54.33;;;5.40;99.90;;;;;;5058379;27;89272;-34
2022/03/23 03:58:31;;;;;;;69.13;56.25;;;5.30;99.90;;;;;;5058840;27;90302;-34
2022/03/23 04:00:57;;;;;;;76.10;60.58;;;5.40;99.90;;;;;;5058839;27;88159;-33
2022/03/23 04:03:22;;;;;;;77.32;56.67;;;5.40;99.90;;;;;;5058150;27;90259;-35
2022/03/23 04:05:48;;;;;;;70.90;54.47;;;5.40;99.90;;;;;;5058372;27;89708;-36
2022/03/23 04:08:13;;;;;;;72.05;56.58;;;5.30;99.90;;;;;;5058118;27;89062;-35
2022/03/23 04:10:39;;;;;;;77.25;58.92;;;5.30;99.90;;;;;;5058338;27;88684;-34
2022/03/23 04:13:07;;;;;;;75.38;58.75;;;5.30;99.90;;;;;;5058587;27;91602;-34
2022/03/23 04:15:34;;;;;;;;;;;5.30;99.90;;;;;;5057803;27;89514;-38
2022/03/23 04:17:59;;;;;;;70.47;57.22;;;5.30;99.90;;;;;;5061232;27;90230;-38
2022/03/23 04:20:25;;;;;;;79.47;60.13;;;5.30;99.90;;;;;;5059054;27;89807;-36
2022/03/23 04:22:51;;;;;;;81.70;61.03;;;5.40;99.90;;;;;;5058646;27;90054;-34
2022/03/23 04:25:18;;;;;;;80.97;62.85;;;5.40;99.90;;;;;;5063005;27;90582;-33
2022/03/23 04:27:44;;;;;;;89.35;64.20;;;5.40;99.90;;;;;;5060984;27;91196;-36
2022/03/23 04:30:12;;;;;;;86.88;62.47;;;5.50;99.90;;;;;;5061779;27;88791;-37
2022/03/23 04:32:37;;;;;;;79.80;60.63;;;5.50;99.90;;;;;;5061712;27;89952;-35
2022/03/23 04:35:04;;;;;;;84.63;63.58;;;5.50;99.90;;;;;;5061015;27;90989;-37
2022/03/23 04:37:30;;;;;;;78.07;59.53;;;5.50;99.90;;;;;;5060985;27;90619;-33
2022/03/23 04:39:56;;;;;;;76.88;62.67;;;5.50;99.90;;;;;;5061587;27;89901;-33
2022/03/23 04:42:21;;;;;;;78.85;59.97;;;5.50;99.90;;;;;;5042899;27;91853;-35
2022/03/23 04:44:47;;;;;;;77.13;58.72;;;5.50;99.90;;;;;;5061625;27;89443;-33
2022/03/23 04:47:13;;;;;;;76.80;60.92;;;5.30;99.90;;;;;;5061791;27;89683;-35
2022/03/23 04:49:39;;;;;;;80.47;58.25;;;5.30;99.90;;;;;;5061251;27;89203;-38
2022/03/23 04:52:04;;;;;;;79.43;58.88;;;5.10;99.90;;;;;;5061677;27;90106;-34
2022/03/23 04:54:30;;;;;;;80.10;56.97;;;4.90;99.90;;;;;;5061114;27;89167;-35
2022/03/23 04:56:56;;;;;;;79.80;57.25;;;4.90;99.90;;;;;;5061318;27;89772;-34
2022/03/23 04:59:21;;;;;;;73.85;58.05;;;4.80;99.90;;;;;;5061090;27;89257;-33
2022/03/23 05:01:47;;;;;;;75.13;58.88;;;4.70;99.90;;;;;;5061108;27;90187;-36
2022/03/23 05:04:13;;;;;;;80.53;60.47;;;4.70;99.90;;;;;;5062002;27;90737;-33
2022/03/23 05:06:38;;;;;;;80.50;62.65;;;4.60;99.90;;;;;;5059841;27;97143;-33
2022/03/23 05:09:04;;;;;;;78.03;57.42;;;4.60;99.90;;;;;;5061780;27;89215;-37
2022/03/23 05:11:30;;;;;;;77.43;58.10;;;4.60;99.90;;;;;;5060962;27;90266;-35
2022/03/23 05:13:55;;;;;;;84.50;62.17;;;4.60;99.90;;;;;;5061370;27;88689;-35
2022/03/23 05:16:21;;;;;;;77.28;59.38;;;4.60;99.90;;;;;;5060360;27;91100;-34
2022/03/23 05:18:46;;;;;;;69.28;59.22;;;4.60;99.90;;;;;;5060529;27;88804;-34
2022/03/23 05:21:12;;;;;;;82.93;60.63;;;4.50;99.90;;;;;;5042909;27;93673;-33
2022/03/23 05:23:38;;;;;;;79.40;61.40;;;4.50;99.90;;;;;;5059924;27;90571;-37
2022/03/23 05:26:03;;;;;;;86.35;59.42;;;4.50;99.90;;;;;;5060689;27;90381;-37
2022/03/23 05:28:29;;;;;;;75.13;56.42;;;4.40;99.90;;;;;;5061029;27;88901;-36
2022/03/23 05:30:55;;;;;;;77.78;59.22;;;4.30;99.90;;;;;;5060461;27;90248;-36
2022/03/23 05:33:20;;;;;;;90.88;63.65;;;4.30;99.90;;;;;;5060311;27;88778;-34
2022/03/23 05:35:46;;;;;;;71.15;58.25;;;4.30;99.90;;;;;;5060293;27;89937;-35
2022/03/23 05:38:11;;;;;;;72.22;57.28;;;4.20;99.90;;;;;;5061300;27;88399;-33
2022/03/23 05:40:37;;;;;;;78.25;58.53;;;4.30;99.90;;;;;;5060294;27;90220;-32
2022/03/23 05:43:03;;;;;;;80.25;62.78;;;4.20;99.90;;;;;;5060838;27;89390;-34
2022/03/23 05:45:29;;;;;;;79.00;58.55;;;4.20;99.90;;;;;;5060050;27;90209;-34
2022/03/23 05:47:56;;;;;;;81.75;61.22;;;4.30;99.90;;;;;;5059894;27;90158;-37
2022/03/23 05:50:22;;;;;;;100.60;62.22;;;4.30;99.90;;;;;;5060812;27;90303;-36
2022/03/23 05:52:48;;;;;;;75.50;59.20;;;4.30;99.90;;;;;;5059872;27;89802;-35
2022/03/23 05:55:13;;;;;;;82.10;60.92;;;4.30;99.90;;;;;;5060714;27;89455;-37
2022/03/23 05:57:39;;;;;;;86.00;62.38;;;4.30;99.90;;;;;;5060004;27;87501;-34
2022/03/23 06:00:07;;;;;;;85.93;66.28;;;4.40;99.90;;;;;;5060071;27;90134;-34
2022/03/23 06:02:33;;;;;;;89.25;67.32;;;4.40;99.90;;;;;;5061036;27;90377;-35
2022/03/23 06:04:58;;;;;;;83.45;63.40;;;4.40;99.90;;;;;;5059754;27;89337;-33
2022/03/23 06:07:24;;;;;;;90.57;67.32;;;4.40;99.90;;;;;;5060496;27;90106;-33
2022/03/23 06:09:49;;;;;;;83.38;64.20;;;4.50;99.90;;;;;;5059811;27;93133;-33
2022/03/23 06:12:15;;;;;;;87.72;67.93;;;4.50;99.90;;;;;;5059328;27;90410;-33
2022/03/23 06:14:43;;;;;;;85.50;65.30;;;4.50;99.90;;;;;;5060153;27;92201;-35
2022/03/23 06:17:12;;;;;;;85.43;65.43;;;4.60;99.90;;;;;;5059991;27;89394;-33
2022/03/23 06:19:37;;;;;;;100.75;68.13;;;4.70;99.90;;;;;;5041401;27;90135;-33
2022/03/23 06:22:04;;;;;;;104.85;68.15;;;4.70;99.90;;;;;;5060186;27;89688;-33
2022/03/23 06:24:30;;;;;;;86.43;61.38;;;4.80;99.90;;;;;;5060107;27;88579;-35
2022/03/23 06:26:56;;;;;;;91.72;67.85;;;4.90;99.90;;;;;;5059657;27;90149;-34
2022/03/23 06:29:21;;;;;;;89.07;67.63;;;4.90;99.90;;;;;;5060316;27;90566;-35
2022/03/23 06:31:47;;;;;;;94.95;70.35;;;5.20;99.90;;;;;;5059689;27;90070;-33
2022/03/23 06:34:12;;;;;;;91.40;70.43;;;5.30;99.90;;;;;;5060057;27;89274;-34
2022/03/23 06:36:38;;;;;;;85.03;68.35;;;5.50;99.90;;;;;;5059444;27;88907;-34
2022/03/23 06:39:04;;;;;;;91.07;67.60;;;5.70;99.90;;;;;;5059708;27;89908;-32
2022/03/23 06:41:30;;;;;;;85.53;64.90;;;5.90;99.90;;;;;;5059752;27;89806;-34
2022/03/23 06:43:56;;;;;;;84.78;64.30;;;6.00;99.90;;;;;;5059658;27;88723;-34
2022/03/23 06:46:22;;;;;;;81.57;62.00;;;6.20;99.90;;;;;;5059028;27;89809;-37
2022/03/23 06:48:48;;;;;;;80.68;63.72;;;6.30;99.90;;;;;;5060211;27;90251;-33
2022/03/23 06:51:14;;;;;;;82.63;64.30;;;6.50;99.90;;;;;;5059309;27;89468;-36
2022/03/23 06:53:40;;;;;;;80.15;57.03;;;6.70;99.90;;;;;;5059817;27;89421;-34
2022/03/23 06:56:06;;;;;;;72.03;56.53;;;6.90;99.90;;;;;;5060032;27;88055;-36
2022/03/23 06:58:31;;;;;;;76.45;59.05;;;7.10;99.90;;;;;;5059375;27;89137;-37
2022/03/23 07:00:57;;;;;;;66.95;55.53;;;7.30;99.90;;;;;;5058802;27;90608;-37
2022/03/23 07:03:24;;;;;;;74.90;57.75;;;7.40;99.90;;;;;;5058814;27;89435;-33
2022/03/23 07:05:50;;;;;;;79.13;58.13;;;7.20;99.90;;;;;;5059972;27;88119;-33
2022/03/23 07:11:00;;;;;;;74.07;56.55;;;7.30;99.90;;;;;;5058907;27;90102;-36
2022/03/23 07:13:25;;;;;;;69.70;54.42;;;7.40;99.90;;;;;;5058885;27;89629;-36
2022/03/23 07:15:51;;;;;;;69.78;53.85;;;7.60;99.90;;;;;;5058797;27;89002;-35
2022/03/23 07:18:16;;;;;;;62.13;50.92;;;7.80;99.90;;;;;;4981985;27;90180;-36
2022/03/23 07:20:42;;;;;;;67.90;52.42;;;7.90;99.90;;;;;;5050905;27;93682;-37
2022/03/23 07:23:08;;;;;;;74.28;51.53;;;8.10;99.90;;;;;;5059010;27;89694;-35
2022/03/23 07:25:34;;;;;;;65.07;49.17;;;8.30;99.90;;;;;;5058558;27;88139;-36
2022/03/23 07:27:59;;;;;;;65.25;50.17;;;8.40;99.90;;;;;;5059351;27;91265;-34
2022/03/23 07:30:26;;;;;;;62.38;48.70;;;8.50;99.90;;;;;;5059716;27;89527;-35
2022/03/23 07:32:53;;;;;;;62.10;46.60;;;8.70;99.90;;;;;;5058882;27;89874;-34
2022/03/23 07:35:19;;;;;;;61.92;45.33;;;9.00;99.90;;;;;;5058817;27;89577;-35
2022/03/23 07:37:44;;;;;;;56.63;42.97;;;9.20;99.90;;;;;;5058896;27;90353;-35
2022/03/23 07:40:10;;;;;;;58.03;44.65;;;9.20;99.90;;;;;;5058616;27;90036;-36
2022/03/23 07:42:36;;;;;;;54.75;43.90;;;9.30;99.90;;;;;;5059038;27;89077;-37
2022/03/23 07:45:02;;;;;;;60.75;45.05;;;9.40;99.90;;;;;;5058900;27;89014;-36
2022/03/23 07:47:27;;;;;;;56.90;42.90;;;9.50;99.90;;;;;;5058406;27;89956;-36
2022/03/23 07:49:53;;;;;;;57.30;42.50;;;9.70;99.90;;;;;;5057748;27;90807;-33
2022/03/23 07:52:19;;;;;;;53.15;42.58;;;10.00;99.90;;;;;;5052090;27;91165;-34
2022/03/23 07:54:45;;;;;;;53.33;40.28;;;10.20;99.90;;;;;;5059730;27;89477;-33
2022/03/23 07:57:10;;;;;;;53.88;42.72;;;10.40;99.90;;;;;;5059164;27;92206;-34
2022/03/23 07:59:36;;;;;;;50.92;39.00;;;10.60;99.90;;;;;;5061941;27;89859;-33
2022/03/23 08:02:02;;;;;;;55.35;38.33;;;10.70;99.90;;;;;;5043262;27;90878;-36
2022/03/23 08:04:27;;;;;;;48.75;37.33;;;10.90;99.90;;;;;;5062224;27;88128;-34
2022/03/23 08:06:53;;;;;;;43.35;34.10;;;11.00;99.90;;;;;;5062254;27;90174;-34
2022/03/23 08:09:19;;;;;;;41.50;34.72;;;11.10;99.90;;;;;;5062053;27;89039;-34
2022/03/23 08:11:44;;;;;;;45.03;33.90;;;11.50;99.90;;;;;;5061576;27;89628;-37
2022/03/23 08:14:10;;;;;;;49.78;34.72;;;11.60;99.90;;;;;;5062052;27;89751;-36
2022/03/23 08:16:36;;;;;;;42.55;35.72;;;12.00;99.90;;;;;;5060763;27;90230;-38
2022/03/23 08:19:01;;;;;;;49.25;35.42;;;12.00;99.90;;;;;;5062296;27;89607;-37
2022/03/23 08:21:28;;;;;;;48.08;35.45;;;11.90;99.90;;;;;;5061597;27;89824;-33
2022/03/23 08:23:53;;;;;;;50.08;32.72;;;12.10;99.90;;;;;;5062159;27;88032;-36
2022/03/23 08:26:19;;;;;;;42.03;33.72;;;12.30;99.90;;;;;;5062079;27;90794;-34
2022/03/23 08:28:46;;;;;;;44.00;30.52;;;12.50;99.90;;;;;;5061610;27;89447;-35
2022/03/23 08:31:12;;;;;;;36.95;29.05;;;12.70;80.50;;;;;;5062164;27;89004;-35
2022/03/23 08:33:38;;;;;;;37.83;28.98;;;13.10;73.00;;;;;;5061322;27;88697;-37
2022/03/23 08:36:05;;;;;;;43.13;31.27;;;13.20;78.40;;;;;;5061582;27;90513;-40
2022/03/23 08:38:31;;;;;;;34.43;28.27;;;13.30;76.00;;;;;;5061337;27;90951;-36
2022/03/23 08:40:57;;;;;;;41.67;31.15;;;13.30;68.70;;;;;;5061083;27;90272;-35
2022/03/23 08:43:23;;;;;;;37.47;27.98;;;13.30;68.70;;;;;;5062624;27;90527;-33
2022/03/23 08:45:49;;;;;;;32.17;27.55;;;13.30;64.90;;;;;;5061319;27;91677;-34
2022/03/23 08:48:18;;;;;;;46.13;26.67;;;13.50;64.90;;;;;;5060887;27;89089;-35
2022/03/23 08:50:48;;;;;;;38.05;27.42;;;13.70;64.20;;;;;;5060584;27;89417;-38
2022/03/23 08:53:14;;;;;;;33.65;26.55;;;14.20;66.30;;;;;;5043244;27;89490;-36
2022/03/23 08:55:40;;;;;;;31.73;25.98;;;14.10;61.30;;;;;;5061693;27;90207;-36
2022/03/23 08:58:07;;;;;;;34.72;26.27;;;14.30;61.00;;;;;;5060744;27;89996;-34
2022/03/23 09:00:33;;;;;;;35.40;27.90;;;14.50;62.10;;;;;;5061099;27;89648;-38
2022/03/23 09:02:59;;;;;;;31.45;26.70;;;14.60;61.40;;;;;;5061026;27;90008;-35
2022/03/23 09:05:24;;;;;;;29.95;24.88;;;14.80;61.60;;;;;;5058909;27;90754;-35
2022/03/23 09:07:50;;;;;;;33.50;26.10;;;14.90;62.50;;;;;;5058777;27;91864;-36
2022/03/23 09:10:17;;;;;;;30.75;24.90;;;15.30;60.00;;;;;;5056993;27;89996;-35
2022/03/23 09:12:43;;;;;;;31.58;25.33;;;15.50;57.50;;;;;;5058984;27;88222;-33
2022/03/23 09:15:10;;;;;;;38.33;26.58;;;15.30;56.30;;;;;;5058901;27;90242;-36
2022/03/23 09:17:36;;;;;;;29.85;23.05;;;15.70;56.80;;;;;;5058040;27;90288;-35
2022/03/23 09:20:04;;;;;;;26.08;20.42;;;15.80;52.70;;;;;;5050061;27;89373;-35
2022/03/23 09:22:34;;;;;;;33.03;21.95;;;15.70;52.30;;;;;;5038455;27;89028;-36
2022/03/23 09:25:04;;;;;;;28.77;24.50;;;16.20;54.00;;;;;;5037758;27;89948;-35
2022/03/23 09:27:37;;;;;;;29.00;24.58;;;16.20;53.00;;;;;;5037847;27;91841;-34
2022/03/23 09:30:05;;;;;;;29.02;23.63;;;16.20;52.50;;;;;;5038248;27;90826;-37
2022/03/23 09:32:31;;;;;;;29.45;23.85;;;15.80;50.80;;;;;;5038442;27;89908;-35
2022/03/23 09:34:57;;;;;;;24.98;20.88;;;15.90;54.10;;;;;;5037696;27;90741;-38
2022/03/23 09:40:08;;;;;;;27.50;22.85;;;16.30;50.80;;;;;;5038138;27;89747;-38
2022/03/23 09:42:34;;;;;;;30.23;22.10;;;16.40;49.90;;;;;;5054400;27;90257;-36
2022/03/23 09:45:00;;;;;;;27.83;22.73;;;16.80;51.20;;;;;;5037943;27;90162;-34
2022/03/23 09:47:26;;;;;;;25.73;22.88;;;16.80;52.20;;;;;;5038860;27;89357;-37
2022/03/23 09:49:52;;;;;;;26.77;22.08;;;16.60;49.90;;;;;;5037596;27;89365;-34
2022/03/23 09:52:18;;;;;;;28.88;23.08;;;16.50;49.40;;;;;;5037966;27;88497;-37
2022/03/23 09:54:45;;;;;;;27.00;22.90;;;16.50;48.50;;;;;;5037560;27;90214;-36
2022/03/23 09:57:11;;;;;;;31.85;19.52;;;16.30;47.10;;;;;;5037508;27;89577;-36
2022/03/23 09:59:37;;;;;;;30.52;21.13;;;16.50;49.30;;;;;;5038512;27;89594;-37
2022/03/23 10:02:02;;;;;;;26.85;22.33;;;16.60;46.00;;;;;;5037501;27;89777;-34
2022/03/23 10:05:17;;;;;;;24.15;20.33;;;16.80;45.00;;;;;;5037452;27;89206;-36
2022/03/23 10:07:55;;;;;;;26.85;22.45;;;16.60;43.70;;;;;;5036821;27;89736;-37
2022/03/23 10:10:30;;;;;;;25.10;21.02;;;16.60;45.60;;;;;;5037814;27;89484;-36
2022/03/23 10:13:33;;;;;;;23.75;19.27;;;16.90;43.90;;;;;;5037541;27;88456;-37
2022/03/23 10:16:17;;;;;;;25.75;19.98;;;17.00;43.10;;;;;;5036116;27;89841;-34
2022/03/23 10:18:51;;;;;;;22.73;20.25;;;17.30;43.80;;;;;;5037044;27;90666;-35
2022/03/23 10:21:18;;;;;;;24.63;20.67;;;17.40;45.50;;;;;;5035894;27;90374;-37
2022/03/23 10:23:59;;;;;;;21.20;19.02;;;17.60;46.10;;;;;;5037433;27;89402;-35
2022/03/23 10:26:26;;;;;;;24.40;21.00;;;17.90;44.50;;;;;;5037373;27;90633;-37
2022/03/23 10:28:52;;;;;;;23.25;20.85;;;17.60;44.60;;;;;;5037310;27;89606;-35
2022/03/23 10:31:20;;;;;;;28.92;19.85;;;17.40;43.90;;;;;;5037341;27;89222;-37
2022/03/23 10:34:08;;;;;;;30.00;21.42;;;17.40;42.60;;;;;;5037231;27;88943;-37
2022/03/23 10:36:40;;;;;;;26.70;20.10;;;17.40;45.10;;;;;;5037882;27;90836;-35
2022/03/23 10:39:07;;;;;;;20.98;17.05;;;17.10;43.80;;;;;;5045693;27;89332;-38
2022/03/23 10:41:33;;;;;;;22.47;19.50;;;17.30;43.70;;;;;;5057218;27;89384;-38
2022/03/23 10:43:59;;;;;;;23.50;19.52;;;17.50;44.10;;;;;;5056431;27;90526;-34
2022/03/23 10:46:25;;;;;;;20.10;18.08;;;17.70;44.30;;;;;;5057084;27;90369;-34
2022/03/23 10:49:01;;;;;;;24.17;19.73;;;17.70;43.80;;;;;;5039009;27;90933;-38
2022/03/23 10:51:35;;;;;;;25.88;18.55;;;17.70;42.10;;;;;;5057043;27;90175;-35
2022/03/23 10:54:23;;;;;;;35.53;19.65;;;17.80;43.30;;;;;;5039000;27;89934;-37
2022/03/23 10:56:49;;;;;;;;;;;18.20;41.90;;;;;;5056661;27;90193;-36
2022/03/23 10:59:22;;;;;;;23.08;20.15;;;18.20;41.90;;;;;;5059086;27;89658;-35
2022/03/23 11:02:08;;;;;;;29.50;20.33;;;18.30;43.30;;;;;;5056790;27;89831;-34
2022/03/23 11:04:44;;;;;;;24.23;20.05;;;18.50;42.80;;;;;;5057665;27;90341;-37
2022/03/23 11:07:30;;;;;;;24.45;19.15;;;18.30;43.60;;;;;;5057260;27;90331;-39
2022/03/23 11:15:49;;;;;;;21.02;18.73;;;18.50;43.80;;;;;;5055560;27;89650;-34
2022/03/23 11:18:17;;;;;;;24.88;19.35;;;18.60;44.50;;;;;;5055817;27;90190;-38
2022/03/23 11:20:44;;;;;;;;;;;18.10;40.70;;;;;;5057046;27;89398;-38
2022/03/23 11:23:18;;;;;;;21.45;17.05;;;18.00;43.30;;;;;;5059810;27;89084;-35
2022/03/23 11:25:45;;;;;;;26.17;19.15;;;18.20;41.30;;;;;;5055829;27;89255;-35
2022/03/23 11:28:14;;;;;;;28.00;18.07;;;18.60;43.30;;;;;;5056978;27;90439;-37
2022/03/23 11:30:41;;;;;;;25.98;17.42;;;18.00;40.30;;;;;;5057277;27;89850;-36
2022/03/23 11:33:11;;;;;;;21.10;18.95;;;18.40;41.50;;;;;;5059363;27;90225;-36
2022/03/23 11:35:46;;;;;;;19.83;17.75;;;18.40;43.40;;;;;;5059220;27;89248;-35
2022/03/23 11:38:13;;;;;;;33.63;19.73;;;18.30;42.10;;;;;;5060356;27;90069;-34
2022/03/23 11:40:42;;;;;;;20.88;18.55;;;18.40;41.90;;;;;;5059893;27;89717;-34
2022/03/23 11:43:10;;;;;;;23.23;18.13;;;18.50;42.50;;;;;;5060215;27;89466;-35
2022/03/23 11:45:38;;;;;;;19.80;17.88;;;18.70;43.10;;;;;;5060354;27;88760;-35
2022/03/23 11:48:27;;;;;;;22.48;18.80;;;18.50;43.00;;;;;;5060498;27;90325;-37
2022/03/23 11:51:11;;;;;;;21.35;16.77;;;18.40;41.50;;;;;;5060128;27;89811;-34
2022/03/23 11:53:53;;;;;;;21.02;16.40;;;18.50;40.80;;;;;;5060290;27;88502;-37
2022/03/23 11:56:35;;;;;;;21.05;17.70;;;18.60;41.80;;;;;;5060902;27;89700;-35
2022/03/23 11:59:21;;;;;;;20.02;15.48;;;18.50;40.40;;;;;;5060534;27;90326;-35
2022/03/23 12:01:50;;;;;;;20.50;16.48;;;18.70;42.10;;;;;;5060160;27;90986;-35
2022/03/23 12:04:19;;;;;;;20.00;16.45;;;18.20;41.00;;;;;;5060240;27;90214;-37
2022/03/23 12:06:45;;;;;;;19.20;16.50;;;18.40;42.50;;;;;;5059142;27;88949;-37
2022/03/23 12:09:37;;;;;;;19.42;16.75;;;18.10;41.20;;;;;;5060303;27;90378;-35
2022/03/23 12:12:22;;;;;;;17.92;13.65;;;18.10;41.40;;;;;;5058954;27;90895;-38
2022/03/23 12:14:48;;;;;;;20.25;16.80;;;18.30;41.80;;;;;;5059493;27;89651;-38
2022/03/23 12:17:28;;;;;;;21.98;17.38;;;18.40;41.60;;;;;;5064282;22;89333;-36
2022/03/23 12:19:57;;;;;;;20.77;17.00;;;18.40;42.30;;;;;;5019194;28;89874;-37
2022/03/23 12:22:31;;;;;;;22.23;15.55;;;18.30;42.80;;;;;;5019237;28;90581;-36
2022/03/23 12:25:23;;;;;;;19.17;16.85;;;18.10;41.40;;;;;;5019353;28;89840;-34
2022/03/23 12:27:54;;;;;;;17.80;15.50;;;18.30;43.60;;;;;;5018734;28;89802;-36
2022/03/23 12:30:26;;;;;;;17.15;14.52;;;18.60;42.70;;;;;;5018785;28;90114;-38
2022/03/23 12:32:56;;;;;;;22.40;15.77;;;18.70;43.40;;;;;;5018755;28;89684;-35
2022/03/23 12:35:33;;;;;;;21.58;15.77;;;18.60;42.00;;;;;;5018768;28;89513;-36
2022/03/23 12:38:00;;;;;;;17.77;14.63;;;18.30;42.50;;;;;;5019050;28;90385;-36
2022/03/23 12:40:40;;;;;;;23.33;16.15;;;18.10;41.40;;;;;;5019025;28;90749;-35
2022/03/23 12:43:05;;;;;;;19.70;13.85;;;18.30;43.10;;;;;;5018830;28;89664;-34
2022/03/23 12:45:39;;;;;;;22.30;14.20;;;18.40;41.70;;;;;;5018095;28;88834;-36
2022/03/23 12:57:49;;;;;;;14.93;12.30;;;18.40;41.90;;;;;;5018951;28;90293;-36
2022/03/23 12:59:21;;;;;;;17.63;15.07;;;18.30;41.90;;;;;;5019635;28;89395;-36
2022/03/23 13:01:47;;;;;;;28.33;14.10;;;18.40;41.50;;;;;;5017899;28;90400;-35
2022/03/23 13:04:44;;;;;;;19.42;12.57;;;18.40;42.40;;;;;;5019028;28;89476;-36
2022/03/23 13:07:28;;;;;;;29.70;13.27;;;18.40;42.00;;;;;;5018431;28;90970;-38